createdAt,value
2022-07-29T00:01:00.168Z,0.00
2022-07-29T00:02:00.164Z,0.00
2022-07-29T00:03:54.341Z,0.00
2022-07-29T00:04:54.276Z,0.00
2022-07-29T00:06:48.317Z,0.00
2022-07-29T00:07:48.305Z,0.00
2022-07-29T00:09:50.925Z,0.00
2022-07-29T00:10:42.372Z,0.00
2022-07-29T00:12:36.458Z,0.00
2022-07-29T00:13:36.449Z,0.00
2022-07-29T00:15:31.684Z,0.00
2022-07-29T00:16:31.694Z,0.00
2022-07-29T00:18:25.743Z,0.00
2022-07-29T00:19:25.726Z,0.00
2022-07-29T00:21:19.862Z,0.00
2022-07-29T00:22:19.851Z,0.00
2022-07-29T00:24:14.229Z,0.00
2022-07-29T00:25:13.958Z,0.00
2022-07-29T00:27:08.022Z,0.00
2022-07-29T00:28:08.013Z,0.00
2022-07-29T00:30:02.258Z,0.00
2022-07-29T00:31:02.281Z,0.00
2022-07-29T00:32:57.417Z,0.00
2022-07-29T00:33:57.402Z,0.00
2022-07-29T00:35:51.474Z,0.00
2022-07-29T00:36:51.468Z,0.00
2022-07-29T00:38:45.881Z,0.00
2022-07-29T00:39:45.870Z,0.00
2022-07-29T00:41:39.949Z,0.00
2022-07-29T00:42:39.941Z,0.00
2022-07-29T00:44:34.098Z,0.00
2022-07-29T00:45:34.079Z,0.00
2022-07-29T00:47:28.185Z,0.00
2022-07-29T00:48:28.161Z,0.00
2022-07-29T00:50:22.267Z,0.00
2022-07-29T00:51:22.261Z,0.00
2022-07-29T00:53:16.379Z,0.00
2022-07-29T00:54:16.772Z,0.00
2022-07-29T00:56:11.487Z,0.00
2022-07-29T00:57:11.480Z,0.00
2022-07-29T00:59:06.623Z,0.00
2022-07-29T01:00:06.605Z,0.00
2022-07-29T01:02:00.798Z,0.00
2022-07-29T01:03:00.739Z,0.00
2022-07-29T01:04:54.822Z,0.00
2022-07-29T01:05:54.806Z,0.00
2022-07-29T01:07:48.889Z,0.00
2022-07-29T01:08:48.870Z,0.00
2022-07-29T01:10:42.964Z,0.00
2022-07-29T01:11:42.956Z,0.00
2022-07-29T01:13:37.015Z,0.00
2022-07-29T01:14:36.999Z,0.00
2022-07-29T01:16:31.182Z,0.00
2022-07-29T01:17:31.112Z,0.00
2022-07-29T01:19:25.397Z,0.00
2022-07-29T01:20:25.379Z,0.00
2022-07-29T01:22:19.591Z,0.00
2022-07-29T01:23:19.570Z,0.00
2022-07-29T01:25:20.498Z,0.00
2022-07-29T01:26:13.621Z,0.00
2022-07-29T01:28:07.764Z,0.00
2022-07-29T01:29:08.467Z,0.00
2022-07-29T01:31:01.581Z,0.00
2022-07-29T01:32:01.599Z,0.00
2022-07-29T01:33:55.620Z,0.00
2022-07-29T01:34:55.603Z,0.00
2022-07-29T01:36:49.657Z,0.00
2022-07-29T01:37:49.648Z,0.00
2022-07-29T01:39:43.764Z,0.00
2022-07-29T01:40:43.759Z,0.00
2022-07-29T01:42:38.503Z,0.00
2022-07-29T01:43:38.491Z,0.00
2022-07-29T01:45:32.584Z,0.00
2022-07-29T01:46:32.630Z,0.00
2022-07-29T01:48:27.716Z,0.00
2022-07-29T01:49:27.764Z,0.00
2022-07-29T01:51:21.758Z,0.00
2022-07-29T01:52:21.826Z,0.00
2022-07-29T01:54:16.159Z,0.00
2022-07-29T01:55:15.870Z,0.00
2022-07-29T01:57:09.950Z,0.00
2022-07-29T01:58:09.941Z,0.00
2022-07-29T02:00:04.028Z,0.00
2022-07-29T02:01:04.009Z,0.00
2022-07-29T02:02:58.077Z,0.00
2022-07-29T02:03:58.060Z,0.00
2022-07-29T02:05:52.127Z,0.00
2022-07-29T02:06:52.124Z,0.00
2022-07-29T02:08:46.262Z,0.00
2022-07-29T02:09:46.245Z,0.00
2022-07-29T02:11:40.310Z,0.00
2022-07-29T02:12:40.304Z,0.00
2022-07-29T02:14:34.393Z,0.00
2022-07-29T02:15:34.379Z,0.00
2022-07-29T02:17:28.447Z,0.00
2022-07-29T02:18:28.438Z,0.00
2022-07-29T02:20:22.530Z,0.00
2022-07-29T02:21:22.511Z,0.00
2022-07-29T02:23:16.610Z,0.00
2022-07-29T02:24:16.890Z,0.00
2022-07-29T02:26:10.404Z,0.00
2022-07-29T02:27:10.397Z,0.00
2022-07-29T02:29:05.485Z,0.00
2022-07-29T02:30:05.473Z,0.00
2022-07-29T02:32:00.515Z,0.00
2022-07-29T02:33:00.507Z,0.00
2022-07-29T02:34:54.594Z,0.00
2022-07-29T02:35:54.577Z,0.00
2022-07-29T02:37:48.691Z,0.00
2022-07-29T02:38:48.658Z,0.00
2022-07-29T02:40:42.790Z,0.00
2022-07-29T02:41:42.777Z,0.00
2022-07-29T02:43:36.857Z,0.00
2022-07-29T02:44:36.840Z,0.00
2022-07-29T02:46:31.980Z,0.00
2022-07-29T02:47:31.915Z,0.00
2022-07-29T02:49:26.016Z,0.00
2022-07-29T02:50:25.952Z,0.00
2022-07-29T02:52:20.075Z,0.00
2022-07-29T02:53:20.065Z,0.00
2022-07-29T02:55:14.286Z,0.00
2022-07-29T02:56:14.268Z,0.00
2022-07-29T02:58:08.412Z,0.00
2022-07-29T02:59:08.389Z,0.00
2022-07-29T03:01:02.578Z,0.00
2022-07-29T03:02:02.597Z,0.00
2022-07-29T03:03:56.314Z,0.00
2022-07-29T03:04:56.391Z,0.00
2022-07-29T03:06:50.391Z,0.00
2022-07-29T03:07:50.380Z,0.00
2022-07-29T03:09:44.114Z,0.00
2022-07-29T03:10:44.100Z,0.00
2022-07-29T03:12:38.192Z,0.00
2022-07-29T03:13:38.186Z,0.00
2022-07-29T03:15:32.259Z,0.00
2022-07-29T03:16:32.274Z,0.00
2022-07-29T03:18:26.327Z,0.00
2022-07-29T03:19:26.309Z,0.00
2022-07-29T03:21:20.453Z,0.00
2022-07-29T03:22:20.444Z,0.00
2022-07-29T03:24:14.847Z,0.00
2022-07-29T03:25:14.516Z,0.00
2022-07-29T03:27:08.565Z,0.00
2022-07-29T03:28:08.556Z,0.00
2022-07-29T03:30:02.423Z,0.00
2022-07-29T03:31:02.446Z,0.00
2022-07-29T03:32:56.663Z,0.00
2022-07-29T03:33:56.129Z,0.00
2022-07-29T03:35:50.291Z,0.00
2022-07-29T03:36:50.273Z,0.00
2022-07-29T03:38:44.362Z,0.00
2022-07-29T03:39:44.344Z,0.00
2022-07-29T03:41:38.436Z,0.00
2022-07-29T03:42:38.423Z,0.00
2022-07-29T03:44:32.515Z,0.00
2022-07-29T03:45:32.499Z,0.00
2022-07-29T03:47:38.575Z,0.00
2022-07-29T03:48:26.761Z,0.00
2022-07-29T03:50:20.953Z,0.00
2022-07-29T03:51:33.737Z,0.00
2022-07-29T03:53:15.102Z,0.00
2022-07-29T03:54:15.500Z,0.00
2022-07-29T03:56:09.167Z,0.00
2022-07-29T03:57:09.152Z,0.00
2022-07-29T03:59:03.312Z,0.00
2022-07-29T04:00:03.296Z,0.00
2022-07-29T04:01:57.396Z,0.00
2022-07-29T04:02:57.384Z,0.00
2022-07-29T04:04:51.391Z,0.00
2022-07-29T04:05:51.377Z,0.00
2022-07-29T04:07:45.571Z,0.00
2022-07-29T04:08:45.568Z,0.00
2022-07-29T04:10:39.442Z,0.00
2022-07-29T04:12:02.407Z,0.00
2022-07-29T04:13:34.604Z,0.00
2022-07-29T04:14:34.606Z,0.00
2022-07-29T04:16:28.724Z,0.00
2022-07-29T04:17:28.657Z,0.00
2022-07-29T04:19:23.717Z,0.00
2022-07-29T04:20:23.687Z,0.00
2022-07-29T04:22:17.746Z,0.00
2022-07-29T04:23:17.733Z,0.00
2022-07-29T04:25:11.874Z,5.63
2022-07-29T04:26:11.854Z,5.63
2022-07-29T04:28:06.155Z,5.63
2022-07-29T04:29:06.148Z,5.63
2022-07-29T04:30:59.948Z,5.63
2022-07-29T04:31:59.851Z,5.63
2022-07-29T04:33:53.564Z,5.63
2022-07-29T04:34:53.551Z,5.63
2022-07-29T04:36:47.641Z,5.63
2022-07-29T04:37:47.624Z,5.63
2022-07-29T04:39:41.671Z,5.63
2022-07-29T04:40:41.657Z,5.63
2022-07-29T04:42:35.724Z,5.63
2022-07-29T04:43:36.789Z,11.25
2022-07-29T04:45:30.808Z,11.25
2022-07-29T04:46:30.798Z,11.25
2022-07-29T04:48:28.730Z,11.25
2022-07-29T04:49:25.941Z,11.25
2022-07-29T04:51:20.061Z,11.25
2022-07-29T04:52:20.047Z,16.88
2022-07-29T04:54:14.378Z,16.88
2022-07-29T04:55:14.137Z,16.88
2022-07-29T04:57:08.436Z,16.88
2022-07-29T04:58:08.418Z,16.88
2022-07-29T05:00:02.533Z,16.88
2022-07-29T05:01:02.575Z,16.88
2022-07-29T05:02:56.637Z,22.50
2022-07-29T05:04:00.260Z,22.50
2022-07-29T05:05:50.683Z,22.50
2022-07-29T05:06:50.663Z,22.50
2022-07-29T05:08:44.748Z,22.50
2022-07-29T05:09:44.741Z,22.50
2022-07-29T05:11:38.829Z,22.50
2022-07-29T05:12:38.812Z,28.13
2022-07-29T05:14:32.921Z,22.50
2022-07-29T05:15:32.938Z,22.50
2022-07-29T05:17:26.980Z,22.50
2022-07-29T05:18:26.968Z,28.13
2022-07-29T05:20:22.039Z,28.13
2022-07-29T05:21:22.021Z,33.75
2022-07-29T05:23:15.735Z,33.75
2022-07-29T05:24:16.075Z,33.75
2022-07-29T05:26:09.879Z,33.75
2022-07-29T05:27:09.862Z,33.75
2022-07-29T05:29:03.914Z,33.75
2022-07-29T05:30:03.909Z,33.75
2022-07-29T05:31:57.957Z,33.75
2022-07-29T05:32:57.940Z,39.38
2022-07-29T05:34:52.052Z,39.38
2022-07-29T05:35:52.027Z,39.38
2022-07-29T05:37:47.249Z,33.75
2022-07-29T05:38:47.236Z,33.75
2022-07-29T05:40:41.971Z,33.75
2022-07-29T05:41:41.952Z,33.75
2022-07-29T05:43:36.102Z,28.13
2022-07-29T05:44:36.092Z,28.13
2022-07-29T05:46:30.267Z,28.13
2022-07-29T05:47:30.194Z,28.13
2022-07-29T05:49:27.352Z,28.13
2022-07-29T05:50:25.257Z,28.13
2022-07-29T05:52:20.402Z,33.75
2022-07-29T05:53:20.966Z,33.75
2022-07-29T05:55:14.513Z,33.75
2022-07-29T05:56:14.506Z,33.75
2022-07-29T05:58:09.868Z,33.75
2022-07-29T05:59:17.940Z,39.38
2022-07-29T06:01:04.116Z,39.38
2022-07-29T06:02:04.058Z,45.00
2022-07-29T06:03:58.149Z,45.00
2022-07-29T06:04:58.161Z,45.00
2022-07-29T06:06:52.208Z,45.00
2022-07-29T06:07:52.190Z,45.00
2022-07-29T06:09:46.344Z,45.00
2022-07-29T06:10:46.337Z,45.00
2022-07-29T06:12:40.561Z,45.00
2022-07-29T06:13:40.553Z,50.63
2022-07-29T06:15:34.860Z,56.25
2022-07-29T06:16:34.869Z,56.25
2022-07-29T06:18:28.875Z,56.25
2022-07-29T06:19:28.853Z,56.25
2022-07-29T06:21:22.968Z,61.88
2022-07-29T06:22:22.947Z,61.88
2022-07-29T06:24:17.491Z,67.50
2022-07-29T06:25:17.057Z,73.13
2022-07-29T06:27:11.139Z,78.75
2022-07-29T06:28:11.125Z,84.38
2022-07-29T06:30:05.380Z,90.00
2022-07-29T06:31:04.882Z,101.25
2022-07-29T06:32:58.951Z,123.75
2022-07-29T06:33:58.935Z,123.75
2022-07-29T06:35:54.983Z,135.00
2022-07-29T06:36:53.062Z,135.00
2022-07-29T06:38:51.250Z,140.63
2022-07-29T06:39:47.373Z,146.25
2022-07-29T06:41:41.463Z,135.00
2022-07-29T06:42:41.447Z,135.00
2022-07-29T06:44:36.566Z,123.75
2022-07-29T06:45:36.556Z,106.88
2022-07-29T06:47:30.663Z,78.75
2022-07-29T06:48:30.655Z,61.88
2022-07-29T06:50:25.048Z,56.25
2022-07-29T06:51:25.002Z,56.25
2022-07-29T06:53:19.085Z,56.25
2022-07-29T06:54:19.305Z,56.25
2022-07-29T06:56:13.180Z,56.25
2022-07-29T06:57:13.174Z,56.25
2022-07-29T06:59:07.286Z,61.88
2022-07-29T07:00:07.256Z,61.88
2022-07-29T07:02:01.404Z,78.75
2022-07-29T07:03:01.334Z,84.38
2022-07-29T07:04:55.493Z,90.00
2022-07-29T07:05:55.487Z,95.63
2022-07-29T07:07:49.717Z,112.50
2022-07-29T07:08:49.700Z,241.88
2022-07-29T07:10:43.911Z,118.13
2022-07-29T07:11:43.909Z,129.38
2022-07-29T07:13:37.997Z,258.75
2022-07-29T07:14:37.984Z,208.13
2022-07-29T07:16:32.125Z,174.38
2022-07-29T07:17:32.045Z,123.75
2022-07-29T07:19:26.197Z,258.75
2022-07-29T07:20:26.196Z,264.38
2022-07-29T07:22:20.466Z,270.00
2022-07-29T07:23:20.453Z,264.38
2022-07-29T07:25:14.521Z,146.25
2022-07-29T07:26:14.518Z,106.88
2022-07-29T07:28:09.629Z,95.63
2022-07-29T07:29:09.612Z,95.63
2022-07-29T07:31:03.378Z,90.00
2022-07-29T07:32:03.427Z,84.38
2022-07-29T07:33:57.481Z,84.38
2022-07-29T07:34:57.471Z,84.38
2022-07-29T07:36:51.623Z,78.75
2022-07-29T07:37:51.608Z,78.75
2022-07-29T07:39:46.844Z,73.13
2022-07-29T07:40:46.837Z,73.13
2022-07-29T07:42:42.031Z,73.13
2022-07-29T07:43:41.985Z,78.75
2022-07-29T07:45:37.105Z,151.88
2022-07-29T07:46:37.078Z,146.25
2022-07-29T07:48:31.140Z,84.38
2022-07-29T07:49:31.220Z,84.38
2022-07-29T07:51:25.903Z,78.75
2022-07-29T07:52:25.889Z,84.38
2022-07-29T07:54:21.149Z,101.25
2022-07-29T07:55:21.017Z,106.88
2022-07-29T07:57:15.129Z,123.75
2022-07-29T07:58:15.116Z,123.75
2022-07-29T08:00:09.237Z,225.00
2022-07-29T08:01:09.290Z,219.38
2022-07-29T08:03:03.439Z,163.13
2022-07-29T08:04:03.393Z,219.38
2022-07-29T08:05:58.613Z,219.38
2022-07-29T08:06:58.601Z,219.38
2022-07-29T08:08:56.226Z,123.75
2022-07-29T08:09:52.769Z,146.25
2022-07-29T08:11:52.041Z,196.88
2022-07-29T08:12:46.926Z,219.38
2022-07-29T08:14:41.025Z,230.63
2022-07-29T08:15:41.021Z,168.75
2022-07-29T08:17:35.494Z,225.00
2022-07-29T08:18:35.120Z,208.13
2022-07-29T08:20:29.203Z,135.00
2022-07-29T08:21:29.200Z,123.75
2022-07-29T08:23:22.968Z,168.75
2022-07-29T08:24:22.960Z,185.63
2022-07-29T08:26:17.088Z,219.38
2022-07-29T08:27:41.712Z,258.75
2022-07-29T08:29:11.170Z,241.88
2022-07-29T08:30:11.328Z,219.38
2022-07-29T08:32:05.344Z,208.13
2022-07-29T08:33:05.267Z,157.50
2022-07-29T08:35:00.378Z,157.50
2022-07-29T08:36:00.383Z,202.50
2022-07-29T08:37:55.463Z,168.75
2022-07-29T08:38:55.460Z,202.50
2022-07-29T08:40:49.548Z,230.63
2022-07-29T08:41:57.345Z,230.63
2022-07-29T08:43:43.620Z,219.38
2022-07-29T08:44:43.614Z,208.13
2022-07-29T08:46:37.724Z,219.38
2022-07-29T08:47:37.719Z,208.13
2022-07-29T08:49:31.838Z,191.25
2022-07-29T08:50:31.837Z,185.63
2022-07-29T08:52:25.951Z,191.25
2022-07-29T08:53:25.944Z,196.88
2022-07-29T08:55:21.503Z,185.63
2022-07-29T08:56:20.055Z,180.00
2022-07-29T08:58:15.709Z,174.38
2022-07-29T08:59:15.088Z,185.63
2022-07-29T09:01:12.395Z,185.63
2022-07-29T09:02:09.215Z,185.63
2022-07-29T09:04:03.402Z,185.63
2022-07-29T09:05:03.301Z,191.25
2022-07-29T09:06:57.431Z,196.88
2022-07-29T09:07:57.428Z,196.88
2022-07-29T09:09:51.558Z,196.88
2022-07-29T09:10:51.550Z,180.00
2022-07-29T09:12:45.679Z,202.50
2022-07-29T09:13:45.672Z,196.88
2022-07-29T09:15:39.427Z,185.63
2022-07-29T09:16:52.613Z,196.88
2022-07-29T09:18:33.559Z,202.50
2022-07-29T09:19:33.549Z,202.50
2022-07-29T09:21:28.697Z,208.13
2022-07-29T09:22:28.699Z,196.88
2022-07-29T09:24:23.785Z,185.63
2022-07-29T09:25:23.774Z,208.13
2022-07-29T09:27:17.920Z,174.38
2022-07-29T09:28:17.927Z,185.63
2022-07-29T09:30:11.738Z,202.50
2022-07-29T09:31:11.686Z,213.75
2022-07-29T09:33:05.824Z,180.00
2022-07-29T09:34:05.815Z,191.25
2022-07-29T09:36:00.003Z,196.88
2022-07-29T09:37:00.003Z,196.88
2022-07-29T09:38:54.100Z,202.50
2022-07-29T09:39:54.093Z,208.13
2022-07-29T09:41:48.209Z,202.50
2022-07-29T09:42:48.210Z,219.38
2022-07-29T09:44:42.329Z,230.63
2022-07-29T09:45:42.327Z,230.63
2022-07-29T09:47:36.426Z,196.88
2022-07-29T09:48:36.429Z,225.00
2022-07-29T09:50:30.515Z,213.75
2022-07-29T09:51:38.538Z,196.88
2022-07-29T09:53:24.614Z,185.63
2022-07-29T09:54:24.609Z,180.00
2022-07-29T09:56:18.741Z,163.13
2022-07-29T09:57:18.741Z,163.13
2022-07-29T09:59:12.885Z,168.75
2022-07-29T10:00:12.878Z,180.00
2022-07-29T10:02:07.001Z,180.00
2022-07-29T10:03:07.078Z,185.63
2022-07-29T10:05:01.091Z,180.00
2022-07-29T10:06:01.085Z,191.25
2022-07-29T10:07:57.384Z,219.38
2022-07-29T10:08:55.169Z,208.13
2022-07-29T10:10:49.310Z,241.88
2022-07-29T10:11:49.991Z,258.75
2022-07-29T10:13:44.761Z,202.50
2022-07-29T10:14:44.753Z,168.75
2022-07-29T10:16:38.926Z,163.13
2022-07-29T10:17:40.535Z,168.75
2022-07-29T10:19:32.948Z,236.25
2022-07-29T10:20:32.964Z,191.25
2022-07-29T10:22:52.059Z,303.75
2022-07-29T10:23:27.050Z,303.75
2022-07-29T10:25:21.195Z,118.13
2022-07-29T10:26:21.172Z,118.13
2022-07-29T10:28:16.750Z,157.50
2022-07-29T10:29:15.375Z,219.38
2022-07-29T10:31:10.510Z,275.63
2022-07-29T10:32:10.467Z,360.00
2022-07-29T10:34:04.572Z,331.88
2022-07-29T10:35:04.570Z,196.88
2022-07-29T10:36:59.645Z,438.75
2022-07-29T10:37:59.652Z,450.00
2022-07-29T10:39:53.738Z,433.13
2022-07-29T10:40:55.010Z,393.75
2022-07-29T10:42:48.862Z,376.88
2022-07-29T10:43:51.324Z,376.88
2022-07-29T10:45:44.994Z,146.25
2022-07-29T10:46:45.051Z,151.88
2022-07-29T10:48:39.120Z,376.88
2022-07-29T10:49:41.210Z,393.75
2022-07-29T10:51:33.223Z,315.00
2022-07-29T10:52:33.431Z,416.25
2022-07-29T10:54:27.344Z,511.88
2022-07-29T10:55:27.350Z,180.00
2022-07-29T10:57:21.508Z,185.63
2022-07-29T10:58:21.503Z,185.63
2022-07-29T11:00:17.714Z,191.25
2022-07-29T11:01:17.704Z,219.38
2022-07-29T11:03:11.837Z,416.25
2022-07-29T11:04:11.815Z,416.25
2022-07-29T11:06:08.581Z,540.00
2022-07-29T11:07:05.916Z,675.00
2022-07-29T11:09:01.013Z,399.38
2022-07-29T11:10:01.007Z,348.75
2022-07-29T11:11:56.140Z,354.38
2022-07-29T11:12:56.143Z,163.13
2022-07-29T11:14:51.283Z,196.88
2022-07-29T11:15:51.276Z,337.50
2022-07-29T11:17:51.859Z,433.13
2022-07-29T11:18:45.437Z,247.50
2022-07-29T11:20:39.546Z,410.63
2022-07-29T11:21:54.007Z,129.38
2022-07-29T11:23:34.648Z,146.25
2022-07-29T11:24:34.910Z,140.63
2022-07-29T11:26:27.809Z,348.75
2022-07-29T11:27:28.624Z,523.13
2022-07-29T11:29:22.022Z,168.75
2022-07-29T11:30:22.011Z,157.50
2022-07-29T11:32:18.340Z,135.00
2022-07-29T11:33:16.115Z,129.38
2022-07-29T11:35:17.548Z,112.50
2022-07-29T11:36:10.204Z,106.88
2022-07-29T11:38:04.299Z,118.13
2022-07-29T11:39:04.302Z,135.00
2022-07-29T11:40:59.408Z,146.25
2022-07-29T11:42:03.135Z,140.63
2022-07-29T11:43:54.558Z,135.00
2022-07-29T11:44:54.554Z,123.75
2022-07-29T11:46:48.644Z,118.13
2022-07-29T11:47:48.693Z,118.13
2022-07-29T11:49:43.740Z,106.88
2022-07-29T11:50:44.488Z,95.63
2022-07-29T11:52:37.853Z,95.63
2022-07-29T11:53:37.855Z,95.63
2022-07-29T11:55:32.672Z,101.25
2022-07-29T11:56:31.936Z,106.88
2022-07-29T11:58:26.502Z,106.88
2022-07-29T11:59:32.911Z,106.88
2022-07-29T12:01:20.254Z,106.88
2022-07-29T12:04:14.419Z,101.25
2022-07-29T12:05:14.550Z,106.88
2022-07-29T12:07:08.554Z,95.63
2022-07-29T12:08:08.551Z,101.25
2022-07-29T12:10:02.724Z,95.63
2022-07-29T12:11:02.717Z,95.63
2022-07-29T12:12:57.794Z,95.63
2022-07-29T12:13:57.794Z,90.00
2022-07-29T12:15:51.951Z,78.75
2022-07-29T12:16:51.930Z,73.13
2022-07-29T12:18:46.052Z,67.50
2022-07-29T12:19:46.052Z,67.50
2022-07-29T12:21:40.140Z,78.75
2022-07-29T12:22:40.133Z,78.75
2022-07-29T12:24:34.230Z,78.75
2022-07-29T12:25:34.562Z,78.75
2022-07-29T12:27:29.756Z,78.75
2022-07-29T12:28:29.688Z,78.75
2022-07-29T12:30:23.404Z,73.13
2022-07-29T12:31:42.976Z,73.13
2022-07-29T12:33:17.609Z,73.13
2022-07-29T12:34:17.609Z,78.75
2022-07-29T12:36:17.402Z,106.88
2022-07-29T12:37:11.681Z,118.13
2022-07-29T12:39:05.758Z,118.13
2022-07-29T12:40:05.761Z,101.25
2022-07-29T12:42:04.498Z,101.25
2022-07-29T12:42:59.840Z,101.25
2022-07-29T12:45:44.753Z,101.25
2022-07-29T12:46:44.798Z,101.25
2022-07-29T12:48:38.952Z,95.63
2022-07-29T12:49:38.848Z,95.63
2022-07-29T12:51:33.002Z,95.63
2022-07-29T12:52:32.989Z,95.63
2022-07-29T12:54:27.077Z,95.63
2022-07-29T12:55:27.076Z,95.63
2022-07-29T12:57:21.217Z,95.63
2022-07-29T12:58:21.202Z,90.00
2022-07-29T13:00:15.335Z,95.63
2022-07-29T13:01:17.391Z,95.63
2022-07-29T13:03:09.621Z,95.63
2022-07-29T13:04:09.620Z,95.63
2022-07-29T13:06:03.716Z,95.63
2022-07-29T13:07:04.789Z,90.00
2022-07-29T13:08:57.801Z,90.00
2022-07-29T13:09:57.804Z,90.00
2022-07-29T13:11:52.037Z,90.00
2022-07-29T13:12:52.026Z,90.00
2022-07-29T13:14:46.250Z,90.00
2022-07-29T13:15:46.259Z,84.38
2022-07-29T13:17:40.367Z,78.75
2022-07-29T13:18:40.359Z,78.75
2022-07-29T13:20:34.498Z,67.50
2022-07-29T13:21:34.489Z,67.50
2022-07-29T13:23:28.592Z,61.88
2022-07-29T13:24:28.590Z,61.88
2022-07-29T13:26:22.743Z,67.50
2022-07-29T13:27:22.736Z,73.13
2022-07-29T13:29:16.827Z,78.75
2022-07-29T13:30:16.827Z,78.75
2022-07-29T13:32:11.967Z,84.38
2022-07-29T13:33:11.959Z,84.38
2022-07-29T13:35:06.074Z,90.00
2022-07-29T13:36:06.046Z,90.00
2022-07-29T13:38:00.149Z,84.38
2022-07-29T13:39:00.134Z,78.75
2022-07-29T13:40:53.874Z,73.13
2022-07-29T13:41:53.858Z,73.13
2022-07-29T13:43:48.122Z,67.50
2022-07-29T13:44:48.118Z,61.88
2022-07-29T13:46:42.276Z,61.88
2022-07-29T13:47:47.719Z,67.50
2022-07-29T13:49:36.381Z,67.50
2022-07-29T13:50:36.382Z,67.50
2022-07-29T13:52:30.476Z,67.50
2022-07-29T13:53:30.469Z,67.50
2022-07-29T13:55:24.612Z,61.88
2022-07-29T13:56:24.610Z,56.25
2022-07-29T13:58:18.702Z,56.25
2022-07-29T13:59:18.701Z,56.25
2022-07-29T14:01:12.804Z,50.63
2022-07-29T14:02:12.763Z,50.63
2022-07-29T14:04:07.958Z,50.63
2022-07-29T14:05:08.797Z,50.63
2022-07-29T14:07:03.802Z,56.25
2022-07-29T14:08:02.008Z,56.25
2022-07-29T14:09:56.090Z,56.25
2022-07-29T14:10:56.083Z,56.25
2022-07-29T14:12:50.211Z,56.25
2022-07-29T14:13:50.203Z,56.25
2022-07-29T14:15:44.325Z,56.25
2022-07-29T14:16:48.973Z,56.25
2022-07-29T14:18:38.431Z,61.88
2022-07-29T14:19:38.434Z,67.50
2022-07-29T14:21:32.623Z,61.88
2022-07-29T14:22:32.611Z,61.88
2022-07-29T14:24:27.675Z,50.63
2022-07-29T14:25:27.673Z,50.63
2022-07-29T14:27:37.751Z,45.00
2022-07-29T14:28:21.829Z,45.00
2022-07-29T14:30:15.711Z,45.00
2022-07-29T14:31:15.768Z,45.00
2022-07-29T14:33:09.867Z,45.00
2022-07-29T14:34:09.855Z,45.00
2022-07-29T14:36:04.045Z,45.00
2022-07-29T14:37:04.031Z,45.00
2022-07-29T14:39:49.861Z,45.00
2022-07-29T14:40:50.855Z,45.00
2022-07-29T14:42:43.975Z,45.00
2022-07-29T14:43:43.963Z,45.00
2022-07-29T14:45:38.108Z,45.00
2022-07-29T14:46:38.094Z,45.00
2022-07-29T14:48:32.199Z,45.00
2022-07-29T14:49:32.189Z,45.00
2022-07-29T14:51:32.282Z,45.00
2022-07-29T14:52:26.262Z,45.00
2022-07-29T14:54:20.361Z,45.00
2022-07-29T14:55:20.481Z,45.00
2022-07-29T14:57:14.445Z,45.00
2022-07-29T14:58:16.395Z,39.38
2022-07-29T15:00:08.596Z,39.38
2022-07-29T15:01:08.626Z,39.38
2022-07-29T15:03:03.129Z,39.38
2022-07-29T15:04:02.701Z,39.38
2022-07-29T15:05:56.835Z,39.38
2022-07-29T15:06:56.829Z,39.38
2022-07-29T15:08:50.924Z,39.38
2022-07-29T15:09:50.908Z,39.38
2022-07-29T15:11:45.000Z,39.38
2022-07-29T15:12:44.989Z,33.75
2022-07-29T15:14:39.103Z,33.75
2022-07-29T15:15:39.098Z,33.75
2022-07-29T15:17:33.284Z,33.75
2022-07-29T15:18:33.271Z,33.75
2022-07-29T15:20:27.416Z,33.75
2022-07-29T15:21:27.416Z,33.75
2022-07-29T15:23:21.626Z,39.38
2022-07-29T15:24:21.624Z,39.38
2022-07-29T15:26:15.736Z,39.38
2022-07-29T15:27:15.723Z,39.38
2022-07-29T15:29:10.800Z,39.38
2022-07-29T15:30:10.803Z,33.75
2022-07-29T15:32:04.940Z,33.75
2022-07-29T15:33:04.873Z,33.75
2022-07-29T15:34:58.944Z,33.75
2022-07-29T15:35:58.950Z,33.75
2022-07-29T15:37:54.090Z,28.13
2022-07-29T15:38:54.081Z,28.13
2022-07-29T15:40:48.204Z,28.13
2022-07-29T15:41:48.214Z,28.13
2022-07-29T15:43:43.293Z,28.13
2022-07-29T15:44:43.281Z,28.13
2022-07-29T15:46:37.468Z,28.13
2022-07-29T15:47:37.455Z,28.13
2022-07-29T15:49:47.215Z,28.13
2022-07-29T15:50:31.579Z,28.13
2022-07-29T15:52:26.578Z,28.13
2022-07-29T15:53:25.660Z,28.13
2022-07-29T15:55:19.850Z,28.13
2022-07-29T15:56:19.843Z,28.13
2022-07-29T15:58:14.019Z,28.13
2022-07-29T15:59:22.090Z,28.13
2022-07-29T16:01:08.107Z,28.13
2022-07-29T16:02:08.085Z,28.13
2022-07-29T16:04:02.197Z,28.13
2022-07-29T16:05:02.158Z,28.13
2022-07-29T16:06:56.547Z,22.50
2022-07-29T16:07:56.192Z,22.50
2022-07-29T16:09:53.196Z,22.50
2022-07-29T16:10:50.281Z,22.50
2022-07-29T16:12:45.392Z,22.50
2022-07-29T16:13:45.381Z,16.88
2022-07-29T16:15:39.477Z,22.50
2022-07-29T16:16:39.501Z,22.50
2022-07-29T16:18:33.614Z,22.50
2022-07-29T16:19:33.607Z,22.50
2022-07-29T16:21:27.816Z,22.50
2022-07-29T16:22:27.810Z,22.50
2022-07-29T16:24:21.921Z,22.50
2022-07-29T16:25:29.614Z,22.50
2022-07-29T16:27:16.031Z,22.50
2022-07-29T16:28:16.015Z,22.50
2022-07-29T16:30:10.079Z,16.88
2022-07-29T16:31:10.153Z,16.88
2022-07-29T16:33:08.057Z,16.88
2022-07-29T16:34:04.167Z,16.88
2022-07-29T16:35:58.213Z,16.88
2022-07-29T16:36:58.796Z,16.88
2022-07-29T16:38:52.325Z,11.25
2022-07-29T16:39:52.278Z,11.25
2022-07-29T16:41:46.370Z,11.25
2022-07-29T16:42:47.355Z,11.25
2022-07-29T16:44:40.218Z,11.25
2022-07-29T16:45:45.283Z,11.25
2022-07-29T16:47:34.322Z,11.25
2022-07-29T16:48:34.309Z,11.25
2022-07-29T16:50:28.385Z,11.25
2022-07-29T16:51:28.384Z,11.25
2022-07-29T16:53:23.760Z,11.25
2022-07-29T16:54:22.485Z,11.25
2022-07-29T16:56:16.576Z,11.25
2022-07-29T16:57:16.576Z,11.25
2022-07-29T16:59:10.325Z,11.25
2022-07-29T17:00:10.311Z,11.25
2022-07-29T17:02:04.487Z,11.25
2022-07-29T17:03:04.427Z,11.25
2022-07-29T17:04:58.506Z,11.25
2022-07-29T17:05:58.497Z,11.25
2022-07-29T17:07:52.639Z,11.25
2022-07-29T17:08:52.629Z,11.25
2022-07-29T17:10:48.806Z,11.25
2022-07-29T17:11:52.910Z,11.25
2022-07-29T17:13:42.874Z,11.25
2022-07-29T17:14:42.864Z,11.25
2022-07-29T17:16:37.152Z,11.25
2022-07-29T17:17:39.416Z,11.25
2022-07-29T17:19:31.230Z,11.25
2022-07-29T17:20:31.201Z,11.25
2022-07-29T17:22:25.355Z,5.63
2022-07-29T17:23:25.340Z,5.63
2022-07-29T17:25:20.639Z,5.63
2022-07-29T17:26:19.437Z,11.25
2022-07-29T17:28:13.545Z,5.63
2022-07-29T17:29:13.531Z,5.63
2022-07-29T17:31:07.691Z,11.25
2022-07-29T17:32:08.149Z,11.25
2022-07-29T17:34:01.735Z,11.25
2022-07-29T17:35:01.724Z,11.25
2022-07-29T17:36:56.218Z,11.25
2022-07-29T17:37:55.838Z,11.25
2022-07-29T17:39:49.928Z,11.25
2022-07-29T17:40:49.909Z,11.25
2022-07-29T17:42:45.088Z,11.25
2022-07-29T17:43:45.075Z,11.25
2022-07-29T17:45:49.470Z,11.25
2022-07-29T17:46:39.263Z,11.25
2022-07-29T17:48:33.299Z,11.25
2022-07-29T17:49:33.291Z,11.25
2022-07-29T17:51:27.368Z,11.25
2022-07-29T17:52:27.364Z,11.25
2022-07-29T17:54:22.424Z,11.25
2022-07-29T17:55:22.410Z,11.25
2022-07-29T17:57:16.535Z,16.88
2022-07-29T17:58:16.530Z,16.88
2022-07-29T18:00:10.747Z,16.88
2022-07-29T18:01:10.809Z,16.88
2022-07-29T18:03:04.941Z,16.88
2022-07-29T18:04:04.840Z,16.88
2022-07-29T18:05:58.941Z,16.88
2022-07-29T18:06:59.264Z,16.88
2022-07-29T18:08:53.016Z,16.88
2022-07-29T18:09:56.310Z,16.88
2022-07-29T18:11:47.318Z,11.25
2022-07-29T18:12:47.311Z,11.25
2022-07-29T18:14:41.447Z,11.25
2022-07-29T18:15:41.432Z,11.25
2022-07-29T18:17:57.121Z,11.25
2022-07-29T18:18:35.544Z,11.25
2022-07-29T18:20:29.670Z,11.25
2022-07-29T18:21:45.771Z,11.25
2022-07-29T18:23:23.409Z,11.25
2022-07-29T18:24:23.396Z,11.25
2022-07-29T18:26:17.543Z,11.25
2022-07-29T18:27:17.535Z,11.25
2022-07-29T18:29:11.612Z,5.63
2022-07-29T18:30:11.591Z,5.63
2022-07-29T18:32:05.682Z,5.63
2022-07-29T18:33:20.642Z,5.63
2022-07-29T18:34:59.761Z,5.63
2022-07-29T18:36:10.575Z,5.63
2022-07-29T18:38:01.608Z,5.63
2022-07-29T18:38:53.476Z,5.63
2022-07-29T18:40:47.689Z,5.63
2022-07-29T18:41:50.279Z,5.63
2022-07-29T18:43:41.759Z,5.63
2022-07-29T18:44:43.779Z,5.63